WXM80 ListenWXM80 Stop

You find our weather info also at:

UK Metoffice

WeatherCloud

Weather Underground

Northeastern Weather Network

AWEKAS

Citizen Weather Observer Program (CWOP)

HAMweather, WeatherForYou, PWS Weather


Weather Underground History page Text

Daily Summary for June 6, 2017 Units:  Both    English   Metric
« Previous Day
Next Day »
Daily Weekly Monthly Yearly Custom
  High: Low: Average:
Temperature: 57.6 °F /  14.2 °C 52.4 °F /  11.3 °C 55 °F /  12.8 °C
Dew Point: 56.8 °F /  13.8 °C 48.3 °F /  9.1 °C 52.7 °F /  11.5 °C
Humidity: 97 % 84 % 92 %
Wind Speed: 10.0 mph /  16.1 km/h - 5.4 mph /  8.7 km/h
Wind Gust: 17.0 mph /  27.4 km/h - -
Wind:- - ENE
Pressure: 29.89 in /  1012.1 hPa 29.66 in /  1004.3 hPa -
Precipitation: 0.09 in /  2.29 mm    
Historical Graphs
 
 
Tabular Data for June 6, 2017
Time Temperature Dew Point Pressure Wind Wind Speed Wind Gust Humidity Rainfall Rate (Hourly)
00:00 57.6 °F /  14.2 °C 56.8 °F /  13.8 °C 29.71 in /  1006 hPa ENE 6.2 mph /  10 km/h 10.4 mph /  16.7 km/h 97 % 0.00 in /  0 mm
00:05 57.5 °F /  14.2 °C 56.7 °F /  13.7 °C 29.70 in /  1005.6 hPa ENE 4.8 mph /  7.7 km/h 11.5 mph /  18.5 km/h 97 % 0.00 in /  0 mm
00:10 57.5 °F /  14.2 °C 56.7 °F /  13.7 °C 29.70 in /  1005.6 hPa ENE 5.9 mph /  9.5 km/h 13.0 mph /  20.9 km/h 97 % 0.00 in /  0 mm
00:15 57.3 °F /  14.1 °C 56.5 °F /  13.6 °C 29.71 in /  1006 hPa ENE 6.9 mph /  11.1 km/h 11.5 mph /  18.5 km/h 97 % 0.00 in /  0 mm
00:20 57.2 °F /  14 °C 56.4 °F /  13.6 °C 29.72 in /  1006.3 hPa NE 6.8 mph /  10.9 km/h 11.5 mph /  18.5 km/h 97 % 0.00 in /  0 mm
00:25 57.2 °F /  14 °C 56.4 °F /  13.6 °C 29.71 in /  1006 hPa ENE 6.9 mph /  11.1 km/h 13.8 mph /  22.2 km/h 97 % 0.00 in /  0 mm
00:30 57.1 °F /  13.9 °C 56.3 °F /  13.5 °C 29.71 in /  1006 hPa East 6.8 mph /  10.9 km/h 10.4 mph /  16.7 km/h 97 % 0.00 in /  0 mm
00:35 57.0 °F /  13.9 °C 56.2 °F /  13.4 °C 29.71 in /  1006 hPa ENE 6.3 mph /  10.1 km/h 12.7 mph /  20.4 km/h 97 % 0.00 in /  0 mm
00:40 56.9 °F /  13.8 °C 56.1 °F /  13.4 °C 29.71 in /  1006 hPa NE 4.8 mph /  7.7 km/h 11.5 mph /  18.5 km/h 97 % 0.00 in /  0 mm
00:45 56.8 °F /  13.8 °C 56.0 °F /  13.3 °C 29.71 in /  1006 hPa East 8.1 mph /  13 km/h 11.5 mph /  18.5 km/h 97 % 0.00 in /  0 mm
00:50 56.7 °F /  13.7 °C 55.9 °F /  13.3 °C 29.71 in /  1006 hPa ENE 8.1 mph /  13 km/h 11.5 mph /  18.5 km/h 97 % 0.00 in /  0 mm
00:55 56.6 °F /  13.7 °C 55.8 °F /  13.2 °C 29.70 in /  1005.6 hPa ENE 8.1 mph /  13 km/h 11.5 mph /  18.5 km/h 97 % 0.00 in /  0 mm
01:00 56.5 °F /  13.6 °C 55.7 °F /  13.2 °C 29.70 in /  1005.6 hPa East 7.2 mph /  11.6 km/h 12.7 mph /  20.4 km/h 97 % 0.00 in /  0 mm
01:05 56.4 °F /  13.6 °C 55.6 °F /  13.1 °C 29.70 in /  1005.6 hPa ENE 8.0 mph /  12.9 km/h 12.7 mph /  20.4 km/h 97 % 0.00 in /  0 mm
01:10 56.4 °F /  13.6 °C 55.3 °F /  12.9 °C 29.70 in /  1005.6 hPa ENE 6.8 mph /  10.9 km/h 11.5 mph /  18.5 km/h 96 % 0.00 in /  0 mm
01:15 56.4 °F /  13.6 °C 55.3 °F /  12.9 °C 29.70 in /  1005.6 hPa East 8.7 mph /  14 km/h 10.0 mph /  16.1 km/h 96 % 0.00 in /  0 mm
01:20 56.5 °F /  13.6 °C 55.4 °F /  13 °C 29.70 in /  1005.6 hPa ENE 6.2 mph /  10 km/h 12.7 mph /  20.4 km/h 96 % 0.00 in /  0 mm
01:26 56.4 °F /  13.6 °C 55.3 °F /  12.9 °C 29.69 in /  1005.3 hPa NE 7.0 mph /  11.3 km/h 11.5 mph /  18.5 km/h 96 % 0.00 in /  0 mm
01:31 56.4 °F /  13.6 °C 55.3 °F /  12.9 °C 29.69 in /  1005.3 hPa ENE 8.0 mph /  12.9 km/h 13.0 mph /  20.9 km/h 96 % 0.00 in /  0 mm
01:36 56.2 °F /  13.4 °C 55.1 °F /  12.8 °C 29.69 in /  1005.3 hPa ENE 7.0 mph /  11.3 km/h 14.0 mph /  22.5 km/h 96 % 0.00 in /  0 mm
01:41 56.2 °F /  13.4 °C 55.1 °F /  12.8 °C 29.69 in /  1005.3 hPa ENE 8.0 mph /  12.9 km/h 13.0 mph /  20.9 km/h 96 % 0.00 in /  0 mm
01:46 56.2 °F /  13.4 °C 55.1 °F /  12.8 °C 29.69 in /  1005.3 hPa ENE 8.0 mph /  12.9 km/h 12.0 mph /  19.3 km/h 96 % 0.00 in /  0 mm
01:50 56.2 °F /  13.4 °C 54.8 °F /  12.7 °C 29.69 in /  1005.3 hPa ENE 6.5 mph /  10.5 km/h 9.2 mph /  14.8 km/h 95 % 0.00 in /  0 mm
01:56 56.2 °F /  13.4 °C 54.8 °F /  12.7 °C 29.68 in /  1005 hPa ENE 8.0 mph /  12.9 km/h 13.0 mph /  20.9 km/h 95 % 0.00 in /  0 mm
02:01 56.2 °F /  13.4 °C 54.8 °F /  12.7 °C 29.68 in /  1005 hPa NE 9.0 mph /  14.5 km/h 11.5 mph /  18.5 km/h 95 % 0.00 in /  0 mm
02:06 56.2 °F /  13.4 °C 54.8 °F /  12.7 °C 29.68 in /  1005 hPa NE 9.4 mph /  15.1 km/h 11.5 mph /  18.5 km/h 95 % 0.00 in /  0 mm
02:10 56.2 °F /  13.4 °C 54.8 °F /  12.7 °C 29.68 in /  1005 hPa ENE 7.8 mph /  12.6 km/h 11.0 mph /  17.7 km/h 95 % 0.00 in /  0 mm
02:16 56.2 °F /  13.4 °C 54.5 °F /  12.5 °C 29.68 in /  1005 hPa ENE 10.0 mph /  16.1 km/h 14.0 mph /  22.5 km/h 94 % 0.00 in /  0 mm
02:21 56.2 °F /  13.4 °C 54.5 °F /  12.5 °C 29.68 in /  1005 hPa ENE 8.0 mph /  12.9 km/h 13.0 mph /  20.9 km/h 94 % 0.00 in /  0 mm
02:26 56.1 °F /  13.4 °C 54.4 °F /  12.4 °C 29.68 in /  1005 hPa ENE 10.0 mph /  16.1 km/h 17.0 mph /  27.4 km/h 94 % 0.00 in /  0 mm
02:31 56.1 °F /  13.4 °C 54.4 °F /  12.4 °C 29.68 in /  1005 hPa ENE 10.0 mph /  16.1 km/h 15.0 mph /  24.1 km/h 94 % 0.00 in /  0 mm
02:36 56.2 °F /  13.4 °C 54.5 °F /  12.5 °C 29.68 in /  1005 hPa East 9.4 mph /  15.1 km/h 12.7 mph /  20.4 km/h 94 % 0.00 in /  0 mm
02:41 56.2 °F /  13.4 °C 54.5 °F /  12.5 °C 29.68 in /  1005 hPa ENE 8.0 mph /  12.9 km/h 14.0 mph /  22.5 km/h 94 % 0.00 in /  0 mm
02:46 56.2 °F /  13.4 °C 54.5 °F /  12.5 °C 29.68 in /  1005 hPa ENE 9.0 mph /  14.5 km/h 13.0 mph /  20.9 km/h 94 % 0.00 in /  0 mm
02:51 56.2 °F /  13.4 °C 54.5 °F /  12.5 °C 29.68 in /  1005 hPa ENE 8.0 mph /  12.9 km/h 13.0 mph /  20.9 km/h 94 % 0.00 in /  0 mm
02:56 56.2 °F /  13.4 °C 54.5 °F /  12.5 °C 29.68 in /  1005 hPa ENE 9.0 mph /  14.5 km/h 15.0 mph /  24.1 km/h 94 % 0.00 in /  0 mm
03:01 56.2 °F /  13.4 °C 54.5 °F /  12.5 °C 29.68 in /  1005 hPa ENE 10.0 mph /  16.1 km/h 12.7 mph /  20.4 km/h 94 % 0.00 in /  0 mm
03:06 56.2 °F /  13.4 °C 54.5 °F /  12.5 °C 29.68 in /  1005 hPa NE 8.0 mph /  12.9 km/h 15.0 mph /  24.1 km/h 94 % 0.00 in /  0 mm
03:11 56.2 °F /  13.4 °C 54.5 °F /  12.5 °C 29.68 in /  1005 hPa ENE 7.5 mph /  12.1 km/h 11.5 mph /  18.5 km/h 94 % 0.00 in /  0 mm
03:16 56.2 °F /  13.4 °C 54.5 °F /  12.5 °C 29.67 in /  1004.6 hPa ENE 8.6 mph /  13.8 km/h 13.0 mph /  20.9 km/h 94 % 0.00 in /  0 mm
03:21 56.1 °F /  13.4 °C 54.4 °F /  12.4 °C 29.67 in /  1004.6 hPa ENE 8.4 mph /  13.5 km/h 13.8 mph /  22.2 km/h 94 % 0.00 in /  0 mm
03:26 56.1 °F /  13.4 °C 54.4 °F /  12.4 °C 29.67 in /  1004.6 hPa ENE 6.4 mph /  10.3 km/h 13.8 mph /  22.2 km/h 94 % 0.00 in /  0 mm
03:31 56.0 °F /  13.3 °C 54.3 °F /  12.4 °C 29.67 in /  1004.6 hPa ENE 7.7 mph /  12.4 km/h 12.7 mph /  20.4 km/h 94 % 0.00 in /  0 mm
03:36 56.0 °F /  13.3 °C 54.3 °F /  12.4 °C 29.67 in /  1004.6 hPa ENE 6.9 mph /  11.1 km/h 11.5 mph /  18.5 km/h 94 % 0.00 in /  0 mm
03:41 56.1 °F /  13.4 °C 54.4 °F /  12.4 °C 29.67 in /  1004.6 hPa ENE 5.3 mph /  8.5 km/h 11.5 mph /  18.5 km/h 94 % 0.00 in /  0 mm
03:46 56.1 °F /  13.4 °C 54.4 °F /  12.4 °C 29.67 in /  1004.6 hPa ENE 6.8 mph /  10.9 km/h 12.7 mph /  20.4 km/h 94 % 0.00 in /  0 mm
03:51 56.1 °F /  13.4 °C 54.4 °F /  12.4 °C 29.66 in /  1004.3 hPa East 7.5 mph /  12.1 km/h 9.2 mph /  14.8 km/h 94 % 0.00 in /  0 mm
03:56 56.1 °F /  13.4 °C 54.4 °F /  12.4 °C 29.66 in /  1004.3 hPa East 6.1 mph /  9.8 km/h 11.5 mph /  18.5 km/h 94 % 0.00 in /  0 mm
04:01 56.1 °F /  13.4 °C 54.1 °F /  12.3 °C 29.66 in /  1004.3 hPa ENE 9.1 mph /  14.6 km/h 13.0 mph /  20.9 km/h 93 % 0.00 in /  0 mm
04:06 56.1 °F /  13.4 °C 54.1 °F /  12.3 °C 29.66 in /  1004.3 hPa ENE 8.0 mph /  12.9 km/h 10.4 mph /  16.7 km/h 93 % 0.00 in /  0 mm
04:11 56.1 °F /  13.4 °C 54.1 °F /  12.3 °C 29.66 in /  1004.3 hPa ENE 5.7 mph /  9.2 km/h 10.0 mph /  16.1 km/h 93 % 0.00 in /  0 mm
04:16 56.2 °F /  13.4 °C 54.2 °F /  12.3 °C 29.66 in /  1004.3 hPa NE 6.2 mph /  10 km/h 9.2 mph /  14.8 km/h 93 % 0.00 in /  0 mm
04:21 56.2 °F /  13.4 °C 54.2 °F /  12.3 °C 29.66 in /  1004.3 hPa NE 4.7 mph /  7.6 km/h 10.4 mph /  16.7 km/h 93 % 0.00 in /  0 mm
04:26 56.2 °F /  13.4 °C 54.2 °F /  12.3 °C 29.66 in /  1004.3 hPa ENE 7.7 mph /  12.4 km/h 10.4 mph /  16.7 km/h 93 % 0.00 in /  0 mm
04:31 56.2 °F /  13.4 °C 54.2 °F /  12.3 °C 29.66 in /  1004.3 hPa NE 6.8 mph /  10.9 km/h 9.2 mph /  14.8 km/h 93 % 0.00 in /  0 mm
04:36 56.2 °F /  13.4 °C 54.2 °F /  12.3 °C 29.66 in /  1004.3 hPa NE 6.1 mph /  9.8 km/h 7.0 mph /  11.3 km/h 93 % 0.00 in /  0 mm
04:41 56.2 °F /  13.4 °C 54.2 °F /  12.3 °C 29.66 in /  1004.3 hPa East 6.2 mph /  10 km/h 11.0 mph /  17.7 km/h 93 % 0.00 in /  0 mm
04:46 56.1 °F /  13.4 °C 54.1 °F /  12.3 °C 29.66 in /  1004.3 hPa ENE 7.3 mph /  11.7 km/h 10.4 mph /  16.7 km/h 93 % 0.00 in /  0 mm
04:51 56.1 °F /  13.4 °C 54.1 °F /  12.3 °C 29.66 in /  1004.3 hPa ENE 7.0 mph /  11.3 km/h 11.5 mph /  18.5 km/h 93 % 0.00 in /  0 mm
04:56 56.1 °F /  13.4 °C 54.1 °F /  12.3 °C 29.66 in /  1004.3 hPa NE 7.6 mph /  12.2 km/h 11.5 mph /  18.5 km/h 93 % 0.00 in /  0 mm
05:01 56.1 °F /  13.4 °C 54.1 °F /  12.3 °C 29.66 in /  1004.3 hPa ENE 7.6 mph /  12.2 km/h 13.8 mph /  22.2 km/h 93 % 0.00 in /  0 mm
05:06 56.1 °F /  13.4 °C 54.1 °F /  12.3 °C 29.66 in /  1004.3 hPa NE 5.6 mph /  9 km/h 11.5 mph /  18.5 km/h 93 % 0.00 in /  0 mm
05:12 56.1 °F /  13.4 °C 54.1 °F /  12.3 °C 29.66 in /  1004.3 hPa ENE 5.7 mph /  9.2 km/h 8.1 mph /  13 km/h 93 % 0.00 in /  0 mm
05:17 56.0 °F /  13.3 °C 54.0 °F /  12.2 °C 29.66 in /  1004.3 hPa NNE 5.2 mph /  8.4 km/h 10.4 mph /  16.7 km/h 93 % 0.00 in /  0 mm
05:22 56.0 °F /  13.3 °C 54.0 °F /  12.2 °C 29.67 in /  1004.6 hPa NE 7.4 mph /  11.9 km/h 9.0 mph /  14.5 km/h 93 % 0.00 in /  0 mm
05:27 56.0 °F /  13.3 °C 54.0 °F /  12.2 °C 29.67 in /  1004.6 hPa ENE 4.0 mph /  6.4 km/h 8.0 mph /  12.9 km/h 93 % 0.00 in /  0 mm
05:32 56.0 °F /  13.3 °C 53.7 °F /  12.1 °C 29.67 in /  1004.6 hPa ENE 6.4 mph /  10.3 km/h 9.2 mph /  14.8 km/h 92 % 0.00 in /  0 mm
05:37 55.9 °F /  13.3 °C 53.6 °F /  12 °C 29.67 in /  1004.6 hPa East 7.5 mph /  12.1 km/h 11.5 mph /  18.5 km/h 92 % 0.00 in /  0 mm
05:42 55.9 °F /  13.3 °C 53.6 °F /  12 °C 29.67 in /  1004.6 hPa ENE 5.3 mph /  8.5 km/h 9.2 mph /  14.8 km/h 92 % 0.00 in /  0 mm
05:47 55.9 °F /  13.3 °C 53.6 °F /  12 °C 29.67 in /  1004.6 hPa ENE 5.7 mph /  9.2 km/h 9.2 mph /  14.8 km/h 92 % 0.00 in /  0 mm
05:52 55.9 °F /  13.3 °C 53.6 °F /  12 °C 29.68 in /  1005 hPa ENE 4.4 mph /  7.1 km/h 10.4 mph /  16.7 km/h 92 % 0.00 in /  0 mm
05:57 55.9 °F /  13.3 °C 53.6 °F /  12 °C 29.68 in /  1005 hPa NNE 4.0 mph /  6.4 km/h 11.5 mph /  18.5 km/h 92 % 0.00 in /  0 mm
06:02 55.9 °F /  13.3 °C 53.9 °F /  12.2 °C 29.68 in /  1005 hPa ENE 2.9 mph /  4.7 km/h 8.1 mph /  13 km/h 93 % 0.00 in /  0 mm
06:07 55.9 °F /  13.3 °C 53.9 °F /  12.2 °C 29.69 in /  1005.3 hPa ENE 3.0 mph /  4.8 km/h 5.8 mph /  9.3 km/h 93 % 0.00 in /  0 mm
06:12 55.8 °F /  13.2 °C 53.8 °F /  12.1 °C 29.69 in /  1005.3 hPa NNE 3.9 mph /  6.3 km/h 8.1 mph /  13 km/h 93 % 0.00 in /  0 mm
06:17 55.7 °F /  13.2 °C 53.7 °F /  12.1 °C 29.70 in /  1005.6 hPa NNE 4.0 mph /  6.4 km/h 5.8 mph /  9.3 km/h 93 % 0.00 in /  0 mm
06:22 55.7 °F /  13.2 °C 53.7 °F /  12.1 °C 29.70 in /  1005.6 hPa NNW 5.1 mph /  8.2 km/h 13.0 mph /  20.9 km/h 93 % 0.00 in /  0 mm
06:27 55.6 °F /  13.1 °C 53.6 °F /  12 °C 29.70 in /  1005.6 hPa North 3.6 mph /  5.8 km/h 5.8 mph /  9.3 km/h 93 % 0.00 in /  0 mm
06:32 55.6 °F /  13.1 °C 53.6 °F /  12 °C 29.70 in /  1005.6 hPa North 6.0 mph /  9.7 km/h 11.5 mph /  18.5 km/h 93 % 0.00 in /  0 mm
06:37 55.5 °F /  13.1 °C 53.5 °F /  11.9 °C 29.70 in /  1005.6 hPa NNE 4.7 mph /  7.6 km/h 6.9 mph /  11.1 km/h 93 % 0.00 in /  0 mm
06:42 55.4 °F /  13 °C 53.4 °F /  11.9 °C 29.69 in /  1005.3 hPa NE 6.2 mph /  10 km/h 11.5 mph /  18.5 km/h 93 % 0.00 in /  0 mm
06:47 55.3 °F /  12.9 °C 53.6 °F /  12 °C 29.69 in /  1005.3 hPa ENE 4.9 mph /  7.9 km/h 9.2 mph /  14.8 km/h 94 % 0.00 in /  0 mm
06:52 55.3 °F /  12.9 °C 53.6 °F /  12 °C 29.70 in /  1005.6 hPa NE 3.9 mph /  6.3 km/h 5.8 mph /  9.3 km/h 94 % 0.00 in /  0 mm
06:57 55.3 °F /  12.9 °C 53.6 °F /  12 °C 29.70 in /  1005.6 hPa ENE 4.1 mph /  6.6 km/h 8.1 mph /  13 km/h 94 % 0.00 in /  0 mm
07:02 55.3 °F /  12.9 °C 53.6 °F /  12 °C 29.70 in /  1005.6 hPa ENE 7.5 mph /  12.1 km/h 11.5 mph /  18.5 km/h 94 % 0.00 in /  0 mm
07:07 55.2 °F /  12.9 °C 53.2 °F /  11.8 °C 29.71 in /  1006 hPa ENE 4.3 mph /  6.9 km/h 9.2 mph /  14.8 km/h 93 % 0.00 in /  0 mm
07:12 55.2 °F /  12.9 °C 53.2 °F /  11.8 °C 29.71 in /  1006 hPa ESE 4.7 mph /  7.6 km/h 15.0 mph /  24.1 km/h 93 % 0.00 in /  0 mm
07:18 55.1 °F /  12.8 °C 53.4 °F /  11.9 °C 29.71 in /  1006 hPa ENE 3.6 mph /  5.8 km/h 10.4 mph /  16.7 km/h 94 % 0.00 in /  0 mm
07:23 55.1 °F /  12.8 °C 53.4 °F /  11.9 °C 29.71 in /  1006 hPa East 4.0 mph /  6.4 km/h 6.9 mph /  11.1 km/h 94 % 0.00 in /  0 mm
07:28 55.1 °F /  12.8 °C 53.1 °F /  11.7 °C 29.71 in /  1006 hPa ENE 7.3 mph /  11.7 km/h 12.7 mph /  20.4 km/h 93 % 0.00 in /  0 mm
07:33 55.0 °F /  12.8 °C 53.0 °F /  11.7 °C 29.70 in /  1005.6 hPa NE 6.6 mph /  10.6 km/h 11.5 mph /  18.5 km/h 93 % 0.00 in /  0 mm
07:38 55.0 °F /  12.8 °C 53.0 °F /  11.7 °C 29.70 in /  1005.6 hPa ENE 7.5 mph /  12.1 km/h 13.8 mph /  22.2 km/h 93 % 0.00 in /  0 mm
07:43 55.0 °F /  12.8 °C 53.0 °F /  11.7 °C 29.70 in /  1005.6 hPa ENE 7.5 mph /  12.1 km/h 13.8 mph /  22.2 km/h 93 % 0.00 in /  0 mm
07:48 55.0 °F /  12.8 °C 53.0 °F /  11.7 °C 29.70 in /  1005.6 hPa ENE 7.1 mph /  11.4 km/h 11.5 mph /  18.5 km/h 93 % 0.00 in /  0 mm
07:53 55.0 °F /  12.8 °C 53.0 °F /  11.7 °C 29.70 in /  1005.6 hPa ENE 7.3 mph /  11.7 km/h 13.0 mph /  20.9 km/h 93 % 0.00 in /  0 mm
07:58 55.0 °F /  12.8 °C 53.0 °F /  11.7 °C 29.70 in /  1005.6 hPa ENE 8.1 mph /  13 km/h 10.4 mph /  16.7 km/h 93 % 0.00 in /  0 mm
08:03 55.0 °F /  12.8 °C 53.0 °F /  11.7 °C 29.70 in /  1005.6 hPa ENE 9.2 mph /  14.8 km/h 13.8 mph /  22.2 km/h 93 % 0.00 in /  0 mm
08:08 55.0 °F /  12.8 °C 53.0 °F /  11.7 °C 29.70 in /  1005.6 hPa ENE 8.3 mph /  13.4 km/h 13.8 mph /  22.2 km/h 93 % 0.00 in /  0 mm
08:13 55.0 °F /  12.8 °C 53.0 °F /  11.7 °C 29.69 in /  1005.3 hPa ENE 5.5 mph /  8.9 km/h 10.4 mph /  16.7 km/h 93 % 0.00 in /  0 mm
08:18 54.9 °F /  12.7 °C 52.9 °F /  11.6 °C 29.69 in /  1005.3 hPa East 7.7 mph /  12.4 km/h 11.5 mph /  18.5 km/h 93 % 0.01 in /  0.25 mm
08:23 54.7 °F /  12.6 °C 53.0 °F /  11.7 °C 29.70 in /  1005.6 hPa East 8.5 mph /  13.7 km/h 13.8 mph /  22.2 km/h 94 % 0.01 in /  0.25 mm
08:28 54.6 °F /  12.6 °C 52.9 °F /  11.6 °C 29.71 in /  1006 hPa East 8.0 mph /  12.9 km/h 11.5 mph /  18.5 km/h 94 % 0.01 in /  0.25 mm
08:33 54.5 °F /  12.5 °C 52.8 °F /  11.6 °C 29.71 in /  1006 hPa ENE 4.6 mph /  7.4 km/h 11.5 mph /  18.5 km/h 94 % 0.01 in /  0.25 mm
08:38 54.4 °F /  12.4 °C 52.7 °F /  11.5 °C 29.72 in /  1006.3 hPa ENE 9.4 mph /  15.1 km/h 12.7 mph /  20.4 km/h 94 % 0.02 in /  0.51 mm
08:43 54.3 °F /  12.4 °C 52.6 °F /  11.4 °C 29.71 in /  1006 hPa ENE 6.4 mph /  10.3 km/h 11.0 mph /  17.7 km/h 94 % 0.02 in /  0.51 mm
08:48 54.2 °F /  12.3 °C 52.5 °F /  11.4 °C 29.71 in /  1006 hPa ENE 4.8 mph /  7.7 km/h 8.1 mph /  13 km/h 94 % 0.02 in /  0.51 mm
08:53 54.2 °F /  12.3 °C 52.8 °F /  11.6 °C 29.71 in /  1006 hPa ENE 6.8 mph /  10.9 km/h 11.5 mph /  18.5 km/h 95 % 0.02 in /  0.51 mm
08:58 54.1 °F /  12.3 °C 52.7 °F /  11.5 °C 29.71 in /  1006 hPa ENE 8.5 mph /  13.7 km/h 10.4 mph /  16.7 km/h 95 % 0.02 in /  0.51 mm
09:03 54.1 °F /  12.3 °C 52.7 °F /  11.5 °C 29.72 in /  1006.3 hPa ENE 7.0 mph /  11.3 km/h 9.2 mph /  14.8 km/h 95 % 0.02 in /  0.51 mm
09:08 54.1 °F /  12.3 °C 52.7 °F /  11.5 °C 29.72 in /  1006.3 hPa ENE 7.2 mph /  11.6 km/h 12.7 mph /  20.4 km/h 95 % 0.02 in /  0.51 mm
09:13 54.0 °F /  12.2 °C 52.6 °F /  11.4 °C 29.72 in /  1006.3 hPa ENE 7.3 mph /  11.7 km/h 11.5 mph /  18.5 km/h 95 % 0.02 in /  0.51 mm
09:18 54.1 °F /  12.3 °C 52.7 °F /  11.5 °C 29.72 in /  1006.3 hPa ENE 9.0 mph /  14.5 km/h 15.0 mph /  24.1 km/h 95 % 0.01 in /  0.25 mm
09:23 54.0 °F /  12.2 °C 52.6 °F /  11.4 °C 29.71 in /  1006 hPa ENE 6.3 mph /  10.1 km/h 11.5 mph /  18.5 km/h 95 % 0.01 in /  0.25 mm
09:28 54.1 °F /  12.3 °C 52.4 °F /  11.3 °C 29.71 in /  1006 hPa ENE 6.5 mph /  10.5 km/h 12.7 mph /  20.4 km/h 94 % 0.01 in /  0.25 mm
09:33 54.1 °F /  12.3 °C 52.4 °F /  11.3 °C 29.72 in /  1006.3 hPa ENE 6.6 mph /  10.6 km/h 13.8 mph /  22.2 km/h 94 % 0.01 in /  0.25 mm
09:38 54.1 °F /  12.3 °C 52.4 °F /  11.3 °C 29.72 in /  1006.3 hPa ENE 8.3 mph /  13.4 km/h 11.5 mph /  18.5 km/h 94 % 0.00 in /  0 mm
09:43 54.1 °F /  12.3 °C 52.4 °F /  11.3 °C 29.71 in /  1006 hPa East 9.2 mph /  14.8 km/h 12.7 mph /  20.4 km/h 94 % 0.01 in /  0.25 mm
09:48 54.1 °F /  12.3 °C 52.4 °F /  11.3 °C 29.71 in /  1006 hPa ENE 7.9 mph /  12.7 km/h 11.5 mph /  18.5 km/h 94 % 0.01 in /  0.25 mm
09:53 54.2 °F /  12.3 °C 52.5 °F /  11.4 °C 29.71 in /  1006 hPa East 6.7 mph /  10.8 km/h 11.5 mph /  18.5 km/h 94 % 0.01 in /  0.25 mm
09:58 54.3 °F /  12.4 °C 52.6 °F /  11.4 °C 29.71 in /  1006 hPa ENE 6.4 mph /  10.3 km/h 8.1 mph /  13 km/h 94 % 0.01 in /  0.25 mm
10:03 54.3 °F /  12.4 °C 52.3 °F /  11.3 °C 29.71 in /  1006 hPa East 9.1 mph /  14.6 km/h 11.5 mph /  18.5 km/h 93 % 0.01 in /  0.25 mm
10:08 54.3 °F /  12.4 °C 52.3 °F /  11.3 °C 29.71 in /  1006 hPa ENE 6.2 mph /  10 km/h 10.4 mph /  16.7 km/h 93 % 0.01 in /  0.25 mm
10:13 54.4 °F /  12.4 °C 52.4 °F /  11.3 °C 29.72 in /  1006.3 hPa ENE 7.9 mph /  12.7 km/h 12.7 mph /  20.4 km/h 93 % 0.01 in /  0.25 mm
10:18 54.6 °F /  12.6 °C 52.6 °F /  11.4 °C 29.72 in /  1006.3 hPa ENE 5.7 mph /  9.2 km/h 11.5 mph /  18.5 km/h 93 % 0.01 in /  0.25 mm
10:23 54.7 °F /  12.6 °C 52.4 °F /  11.3 °C 29.73 in /  1006.7 hPa ENE 4.7 mph /  7.6 km/h 9.2 mph /  14.8 km/h 92 % 0.01 in /  0.25 mm
10:29 54.9 °F /  12.7 °C 52.6 °F /  11.4 °C 29.73 in /  1006.7 hPa ENE 5.1 mph /  8.2 km/h 10.4 mph /  16.7 km/h 92 % 0.01 in /  0.25 mm
10:34 54.9 °F /  12.7 °C 52.6 °F /  11.4 °C 29.73 in /  1006.7 hPa ENE 5.8 mph /  9.3 km/h 11.5 mph /  18.5 km/h 92 % 0.01 in /  0.25 mm
10:39 55.0 °F /  12.8 °C 52.7 °F /  11.5 °C 29.73 in /  1006.7 hPa ENE 6.2 mph /  10 km/h 12.7 mph /  20.4 km/h 92 % 0.01 in /  0.25 mm
10:44 55.1 °F /  12.8 °C 52.8 °F /  11.6 °C 29.73 in /  1006.7 hPa ENE 5.4 mph /  8.7 km/h 11.5 mph /  18.5 km/h 92 % 0.00 in /  0 mm
10:49 55.2 °F /  12.9 °C 52.6 °F /  11.4 °C 29.73 in /  1006.7 hPa ENE 6.9 mph /  11.1 km/h 9.2 mph /  14.8 km/h 91 % 0.00 in /  0 mm
10:54 55.2 °F /  12.9 °C 52.6 °F /  11.4 °C 29.74 in /  1007 hPa ENE 5.5 mph /  8.9 km/h 10.4 mph /  16.7 km/h 91 % 0.00 in /  0 mm
10:57 55.3 °F /  12.9 °C 52.7 °F /  11.5 °C 29.74 in /  1007 hPa NNE 5.5 mph /  8.9 km/h 9.2 mph /  14.8 km/h 91 % 0.00 in /  0 mm
11:02 55.2 °F /  12.9 °C 52.3 °F /  11.3 °C 29.74 in /  1007 hPa NNE 4.8 mph /  7.7 km/h 9.2 mph /  14.8 km/h 90 % 0.00 in /  0 mm
11:07 55.2 °F /  12.9 °C 52.0 °F /  11.1 °C 29.74 in /  1007 hPa ENE 7.6 mph /  12.2 km/h 10.4 mph /  16.7 km/h 89 % 0.00 in /  0 mm
11:12 55.3 °F /  12.9 °C 52.4 °F /  11.3 °C 29.74 in /  1007 hPa ENE 8.3 mph /  13.4 km/h 11.5 mph /  18.5 km/h 90 % 0.00 in /  0 mm
11:17 55.3 °F /  12.9 °C 52.1 °F /  11.2 °C 29.74 in /  1007 hPa ENE 5.2 mph /  8.4 km/h 8.1 mph /  13 km/h 89 % 0.00 in /  0 mm
11:22 55.4 °F /  13 °C 52.2 °F /  11.2 °C 29.74 in /  1007 hPa ENE 4.7 mph /  7.6 km/h 8.1 mph /  13 km/h 89 % 0.00 in /  0 mm
11:27 55.6 °F /  13.1 °C 52.7 °F /  11.5 °C 29.74 in /  1007 hPa NE 5.7 mph /  9.2 km/h 8.1 mph /  13 km/h 90 % 0.00 in /  0 mm
11:32 55.7 °F /  13.2 °C 52.5 °F /  11.4 °C 29.74 in /  1007 hPa NE 6.1 mph /  9.8 km/h 10.0 mph /  16.1 km/h 89 % 0.00 in /  0 mm
11:37 55.6 °F /  13.1 °C 52.1 °F /  11.2 °C 29.74 in /  1007 hPa ENE 3.4 mph /  5.5 km/h 8.1 mph /  13 km/h 88 % 0.00 in /  0 mm
11:42 55.7 °F /  13.2 °C 52.5 °F /  11.4 °C 29.74 in /  1007 hPa NE 3.0 mph /  4.8 km/h 4.6 mph /  7.4 km/h 89 % 0.00 in /  0 mm
11:47 55.7 °F /  13.2 °C 52.5 °F /  11.4 °C 29.74 in /  1007 hPa NE 2.8 mph /  4.5 km/h 10.4 mph /  16.7 km/h 89 % 0.00 in /  0 mm
11:53 55.7 °F /  13.2 °C 52.5 °F /  11.4 °C 29.74 in /  1007 hPa ENE 4.5 mph /  7.2 km/h 9.0 mph /  14.5 km/h 89 % 0.00 in /  0 mm
11:55 55.7 °F /  13.2 °C 52.5 °F /  11.4 °C 29.74 in /  1007 hPa East 5.8 mph /  9.3 km/h 8.1 mph /  13 km/h 89 % 0.00 in /  0 mm
12:00 55.7 °F /  13.2 °C 52.5 °F /  11.4 °C 29.74 in /  1007 hPa NE 4.9 mph /  7.9 km/h 8.1 mph /  13 km/h 89 % 0.00 in /  0 mm
12:05 55.7 °F /  13.2 °C 52.5 °F /  11.4 °C 29.74 in /  1007 hPa ENE 6.3 mph /  10.1 km/h 9.2 mph /  14.8 km/h 89 % 0.00 in /  0 mm
12:10 55.6 °F /  13.1 °C 52.4 °F /  11.3 °C 29.74 in /  1007 hPa NE 2.9 mph /  4.7 km/h 4.6 mph /  7.4 km/h 89 % 0.00 in /  0 mm
12:15 55.6 °F /  13.1 °C 52.4 °F /  11.3 °C 29.74 in /  1007 hPa ENE 5.9 mph /  9.5 km/h 5.9 mph /  9.5 km/h 89 % 0.00 in /  0 mm
12:20 55.6 °F /  13.1 °C 52.4 °F /  11.3 °C 29.74 in /  1007 hPa ENE 5.8 mph /  9.3 km/h 9.2 mph /  14.8 km/h 89 % 0.00 in /  0 mm
12:25 55.5 °F /  13.1 °C 52.3 °F /  11.3 °C 29.74 in /  1007 hPa ENE 3.0 mph /  4.8 km/h 5.0 mph /  8 km/h 89 % 0.00 in /  0 mm
12:31 55.5 °F /  13.1 °C 52.3 °F /  11.3 °C 29.74 in /  1007 hPa ENE 6.0 mph /  9.7 km/h 9.0 mph /  14.5 km/h 89 % 0.00 in /  0 mm
12:36 55.5 °F /  13.1 °C 52.3 °F /  11.3 °C 29.74 in /  1007 hPa ENE 5.0 mph /  8 km/h 12.0 mph /  19.3 km/h 89 % 0.00 in /  0 mm
12:41 55.5 °F /  13.1 °C 52.3 °F /  11.3 °C 29.74 in /  1007 hPa ENE 5.0 mph /  8 km/h 9.0 mph /  14.5 km/h 89 % 0.00 in /  0 mm
12:46 55.4 °F /  13 °C 52.2 °F /  11.2 °C 29.74 in /  1007 hPa ENE 5.0 mph /  8 km/h 12.0 mph /  19.3 km/h 89 % 0.00 in /  0 mm
12:51 55.4 °F /  13 °C 52.2 °F /  11.2 °C 29.73 in /  1006.7 hPa ENE 5.0 mph /  8 km/h 12.0 mph /  19.3 km/h 89 % 0.00 in /  0 mm
12:56 55.4 °F /  13 °C 52.2 °F /  11.2 °C 29.73 in /  1006.7 hPa ENE 7.0 mph /  11.3 km/h 13.0 mph /  20.9 km/h 89 % 0.00 in /  0 mm
13:01 55.4 °F /  13 °C 52.2 °F /  11.2 °C 29.74 in /  1007 hPa East 5.9 mph /  9.5 km/h 10.4 mph /  16.7 km/h 89 % 0.00 in /  0 mm
13:06 55.2 °F /  12.9 °C 52.0 °F /  11.1 °C 29.74 in /  1007 hPa ENE 3.7 mph /  6 km/h 11.5 mph /  18.5 km/h 89 % 0.00 in /  0 mm
13:11 55.2 °F /  12.9 °C 52.3 °F /  11.3 °C 29.74 in /  1007 hPa ENE 6.0 mph /  9.7 km/h 10.0 mph /  16.1 km/h 90 % 0.00 in /  0 mm
13:16 55.1 °F /  12.8 °C 52.5 °F /  11.4 °C 29.74 in /  1007 hPa ENE 5.0 mph /  8 km/h 10.0 mph /  16.1 km/h 91 % 0.00 in /  0 mm
13:21 55.1 °F /  12.8 °C 52.5 °F /  11.4 °C 29.75 in /  1007.3 hPa ENE 3.0 mph /  4.8 km/h 7.0 mph /  11.3 km/h 91 % 0.00 in /  0 mm
13:26 55.0 °F /  12.8 °C 52.7 °F /  11.5 °C 29.75 in /  1007.3 hPa ENE 2.0 mph /  3.2 km/h 9.0 mph /  14.5 km/h 92 % 0.00 in /  0 mm
13:31 55.0 °F /  12.8 °C 52.7 °F /  11.5 °C 29.75 in /  1007.3 hPa ENE 6.0 mph /  9.7 km/h 9.0 mph /  14.5 km/h 92 % 0.00 in /  0 mm
13:36 55.0 °F /  12.8 °C 52.7 °F /  11.5 °C 29.75 in /  1007.3 hPa ENE 5.0 mph /  8 km/h 10.0 mph /  16.1 km/h 92 % 0.00 in /  0 mm
13:41 54.9 °F /  12.7 °C 52.6 °F /  11.4 °C 29.75 in /  1007.3 hPa ENE 3.0 mph /  4.8 km/h 9.0 mph /  14.5 km/h 92 % 0.00 in /  0 mm
13:46 54.9 °F /  12.7 °C 52.9 °F /  11.6 °C 29.75 in /  1007.3 hPa ENE 2.0 mph /  3.2 km/h 9.0 mph /  14.5 km/h 93 % 0.00 in /  0 mm
13:51 54.8 °F /  12.7 °C 52.8 °F /  11.6 °C 29.75 in /  1007.3 hPa ENE 3.0 mph /  4.8 km/h 9.0 mph /  14.5 km/h 93 % 0.00 in /  0 mm
13:56 54.7 °F /  12.6 °C 52.7 °F /  11.5 °C 29.75 in /  1007.3 hPa ENE 2.0 mph /  3.2 km/h 7.0 mph /  11.3 km/h 93 % 0.00 in /  0 mm
14:01 54.7 °F /  12.6 °C 52.7 °F /  11.5 °C 29.76 in /  1007.7 hPa ENE 0.8 mph /  1.3 km/h 3.5 mph /  5.6 km/h 93 % 0.01 in /  0.25 mm
14:06 54.7 °F /  12.6 °C 53.0 °F /  11.7 °C 29.76 in /  1007.7 hPa ENE 1.0 mph /  1.6 km/h 7.0 mph /  11.3 km/h 94 % 0.00 in /  0 mm
14:07 54.7 °F /  12.6 °C 53.0 °F /  11.7 °C 29.76 in /  1007.7 hPa NE 1.1 mph /  1.8 km/h 3.5 mph /  5.6 km/h 94 % 0.01 in /  0.25 mm
14:12 54.7 °F /  12.6 °C 53.0 °F /  11.7 °C 29.76 in /  1007.7 hPa NE 1.4 mph /  2.3 km/h 4.6 mph /  7.4 km/h 94 % 0.01 in /  0.25 mm
14:17 54.6 °F /  12.6 °C 52.9 °F /  11.6 °C 29.76 in /  1007.7 hPa North 3.1 mph /  5 km/h 4.6 mph /  7.4 km/h 94 % 0.01 in /  0.25 mm
14:22 54.6 °F /  12.6 °C 52.9 °F /  11.6 °C 29.76 in /  1007.7 hPa ENE 4.0 mph /  6.4 km/h 8.0 mph /  12.9 km/h 94 % 0.02 in /  0.51 mm
14:27 54.6 °F /  12.6 °C 52.9 °F /  11.6 °C 29.76 in /  1007.7 hPa ENE 3.5 mph /  5.6 km/h 7.0 mph /  11.3 km/h 94 % 0.03 in /  0.76 mm
14:32 54.6 °F /  12.6 °C 52.9 °F /  11.6 °C 29.76 in /  1007.7 hPa North 2.1 mph /  3.4 km/h 3.5 mph /  5.6 km/h 94 % 0.04 in /  1.02 mm
14:37 54.7 °F /  12.6 °C 53.3 °F /  11.8 °C 29.76 in /  1007.7 hPa NE 3.0 mph /  4.8 km/h 4.6 mph /  7.4 km/h 95 % 0.04 in /  1.02 mm
14:42 54.9 °F /  12.7 °C 53.5 °F /  11.9 °C 29.77 in /  1008 hPa NE 3.8 mph /  6.1 km/h 8.1 mph /  13 km/h 95 % 0.05 in /  1.27 mm
14:47 55.2 °F /  12.9 °C 53.8 °F /  12.1 °C 29.77 in /  1008 hPa NE 2.8 mph /  4.5 km/h 4.6 mph /  7.4 km/h 95 % 0.05 in /  1.27 mm
14:54 55.4 °F /  13 °C 54.3 °F /  12.4 °C 29.77 in /  1008 hPa NNE 1.7 mph /  2.7 km/h 7.0 mph /  11.3 km/h 96 % 0.06 in /  1.52 mm
14:59 55.5 °F /  13.1 °C 54.4 °F /  12.4 °C 29.77 in /  1008 hPa NE 2.9 mph /  4.7 km/h 4.6 mph /  7.4 km/h 96 % 0.05 in /  1.27 mm
15:02 55.4 °F /  13 °C 54.0 °F /  12.2 °C 29.77 in /  1008 hPa ENE 3.0 mph /  4.8 km/h 6.9 mph /  11.1 km/h 95 % 0.05 in /  1.27 mm
15:08 55.3 °F /  12.9 °C 53.9 °F /  12.2 °C 29.77 in /  1008 hPa ENE 2.3 mph /  3.7 km/h 4.6 mph /  7.4 km/h 95 % 0.05 in /  1.27 mm
15:13 55.6 °F /  13.1 °C 54.2 °F /  12.3 °C 29.76 in /  1007.7 hPa ENE 2.2 mph /  3.5 km/h 10.4 mph /  16.7 km/h 95 % 0.05 in /  1.27 mm
15:18 55.9 °F /  13.3 °C 54.8 °F /  12.7 °C 29.76 in /  1007.7 hPa ENE 3.4 mph /  5.5 km/h 8.1 mph /  13 km/h 96 % 0.05 in /  1.27 mm
15:23 55.9 °F /  13.3 °C 54.5 °F /  12.5 °C 29.77 in /  1008 hPa ENE 2.1 mph /  3.4 km/h 6.9 mph /  11.1 km/h 95 % 0.04 in /  1.02 mm
15:28 55.9 °F /  13.3 °C 54.5 °F /  12.5 °C 29.77 in /  1008 hPa ENE 4.9 mph /  7.9 km/h 6.9 mph /  11.1 km/h 95 % 0.03 in /  0.76 mm
15:33 55.7 °F /  13.2 °C 54.3 °F /  12.4 °C 29.77 in /  1008 hPa NE 4.2 mph /  6.8 km/h 6.9 mph /  11.1 km/h 95 % 0.02 in /  0.51 mm
15:38 55.6 °F /  13.1 °C 53.9 °F /  12.2 °C 29.77 in /  1008 hPa NE 2.3 mph /  3.7 km/h 5.8 mph /  9.3 km/h 94 % 0.02 in /  0.51 mm
15:43 55.6 °F /  13.1 °C 53.9 °F /  12.2 °C 29.78 in /  1008.4 hPa ENE 3.5 mph /  5.6 km/h 4.0 mph /  6.4 km/h 94 % 0.01 in /  0.25 mm
15:48 55.7 °F /  13.2 °C 54.0 °F /  12.2 °C 29.78 in /  1008.4 hPa ENE 2.6 mph /  4.2 km/h 3.5 mph /  5.6 km/h 94 % 0.00 in /  0 mm
15:53 55.6 °F /  13.1 °C 53.9 °F /  12.2 °C 29.78 in /  1008.4 hPa NE 3.1 mph /  5 km/h 6.9 mph /  11.1 km/h 94 % 0.00 in /  0 mm
15:58 55.5 °F /  13.1 °C 53.8 °F /  12.1 °C 29.78 in /  1008.4 hPa ENE 0.6 mph /  1 km/h 5.8 mph /  9.3 km/h 94 % 0.00 in /  0 mm
16:03 55.5 °F /  13.1 °C 53.8 °F /  12.1 °C 29.78 in /  1008.4 hPa ENE 3.8 mph /  6.1 km/h 8.1 mph /  13 km/h 94 % 0.00 in /  0 mm
16:08 55.6 °F /  13.1 °C 53.9 °F /  12.2 °C 29.78 in /  1008.4 hPa NE 2.2 mph /  3.5 km/h 6.9 mph /  11.1 km/h 94 % 0.00 in /  0 mm
16:13 55.8 °F /  13.2 °C 54.1 °F /  12.3 °C 29.78 in /  1008.4 hPa NE 2.7 mph /  4.3 km/h 7.0 mph /  11.3 km/h 94 % 0.00 in /  0 mm
16:18 55.9 °F /  13.3 °C 54.2 °F /  12.3 °C 29.78 in /  1008.4 hPa NE 2.3 mph /  3.7 km/h 6.9 mph /  11.1 km/h 94 % 0.00 in /  0 mm
16:23 56.1 °F /  13.4 °C 54.4 °F /  12.4 °C 29.79 in /  1008.7 hPa ENE 3.3 mph /  5.3 km/h 6.9 mph /  11.1 km/h 94 % 0.00 in /  0 mm
16:28 56.1 °F /  13.4 °C 54.4 °F /  12.4 °C 29.79 in /  1008.7 hPa ENE 3.1 mph /  5 km/h 7.0 mph /  11.3 km/h 94 % 0.00 in /  0 mm
16:33 56.0 °F /  13.3 °C 54.0 °F /  12.2 °C 29.79 in /  1008.7 hPa NE 3.1 mph /  5 km/h 8.1 mph /  13 km/h 93 % 0.00 in /  0 mm
16:38 55.9 °F /  13.3 °C 53.6 °F /  12 °C 29.79 in /  1008.7 hPa ENE 3.4 mph /  5.5 km/h 4.6 mph /  7.4 km/h 92 % 0.00 in /  0 mm
16:43 55.8 °F /  13.2 °C 53.5 °F /  11.9 °C 29.79 in /  1008.7 hPa ENE 2.2 mph /  3.5 km/h 4.6 mph /  7.4 km/h 92 % 0.00 in /  0 mm
16:48 55.6 °F /  13.1 °C 53.3 °F /  11.8 °C 29.79 in /  1008.7 hPa East 2.4 mph /  3.9 km/h 5.0 mph /  8 km/h 92 % 0.00 in /  0 mm
16:53 55.5 °F /  13.1 °C 53.2 °F /  11.8 °C 29.79 in /  1008.7 hPa ENE 2.8 mph /  4.5 km/h 4.6 mph /  7.4 km/h 92 % 0.00 in /  0 mm
16:56 55.4 °F /  13 °C 53.1 °F /  11.7 °C 29.79 in /  1008.7 hPa ENE 3.4 mph /  5.5 km/h 6.9 mph /  11.1 km/h 92 % 0.00 in /  0 mm
17:01 55.2 °F /  12.9 °C 52.9 °F /  11.6 °C 29.79 in /  1008.7 hPa East 3.5 mph /  5.6 km/h 7.0 mph /  11.3 km/h 92 % 0.00 in /  0 mm
17:06 55.1 °F /  12.8 °C 52.5 °F /  11.4 °C 29.79 in /  1008.7 hPa ENE 5.6 mph /  9 km/h 8.1 mph /  13 km/h 91 % 0.00 in /  0 mm
17:11 55.0 °F /  12.8 °C 52.7 °F /  11.5 °C 29.79 in /  1008.7 hPa ENE 2.0 mph /  3.2 km/h 6.0 mph /  9.7 km/h 92 % 0.00 in /  0 mm
17:16 54.9 °F /  12.7 °C 52.6 °F /  11.4 °C 29.79 in /  1008.7 hPa ENE 3.0 mph /  4.8 km/h 9.0 mph /  14.5 km/h 92 % 0.00 in /  0 mm
17:21 54.9 °F /  12.7 °C 52.6 °F /  11.4 °C 29.79 in /  1008.7 hPa ENE 3.0 mph /  4.8 km/h 7.0 mph /  11.3 km/h 92 % 0.00 in /  0 mm
17:26 54.8 °F /  12.7 °C 52.5 °F /  11.4 °C 29.79 in /  1008.7 hPa ENE 6.0 mph /  9.7 km/h 9.0 mph /  14.5 km/h 92 % 0.00 in /  0 mm
17:31 54.7 °F /  12.6 °C 52.4 °F /  11.3 °C 29.79 in /  1008.7 hPa ENE 5.0 mph /  8 km/h 10.0 mph /  16.1 km/h 92 % 0.00 in /  0 mm
17:36 54.7 °F /  12.6 °C 52.4 °F /  11.3 °C 29.79 in /  1008.7 hPa ENE 3.0 mph /  4.8 km/h 7.0 mph /  11.3 km/h 92 % 0.00 in /  0 mm
17:41 54.7 °F /  12.6 °C 52.4 °F /  11.3 °C 29.80 in /  1009 hPa ENE 5.0 mph /  8 km/h 8.0 mph /  12.9 km/h 92 % 0.00 in /  0 mm
17:46 54.7 °F /  12.6 °C 52.4 °F /  11.3 °C 29.80 in /  1009 hPa ENE 5.0 mph /  8 km/h 12.0 mph /  19.3 km/h 92 % 0.00 in /  0 mm
17:51 54.6 °F /  12.6 °C 52.0 °F /  11.1 °C 29.80 in /  1009 hPa ENE 6.0 mph /  9.7 km/h 10.0 mph /  16.1 km/h 91 % 0.00 in /  0 mm
17:56 54.6 °F /  12.6 °C 52.0 °F /  11.1 °C 29.80 in /  1009 hPa ENE 5.0 mph /  8 km/h 9.0 mph /  14.5 km/h 91 % 0.00 in /  0 mm
18:01 54.6 °F /  12.6 °C 52.0 °F /  11.1 °C 29.80 in /  1009 hPa ENE 3.8 mph /  6.1 km/h 6.9 mph /  11.1 km/h 91 % 0.00 in /  0 mm
18:06 54.6 °F /  12.6 °C 52.0 °F /  11.1 °C 29.80 in /  1009 hPa ENE 5.6 mph /  9 km/h 8.1 mph /  13 km/h 91 % 0.00 in /  0 mm
18:11 54.5 °F /  12.5 °C 51.9 °F /  11.1 °C 29.80 in /  1009 hPa NNE 3.8 mph /  6.1 km/h 5.8 mph /  9.3 km/h 91 % 0.00 in /  0 mm
18:16 54.4 °F /  12.4 °C 51.8 °F /  11 °C 29.81 in /  1009.4 hPa NE 6.5 mph /  10.5 km/h 8.1 mph /  13 km/h 91 % 0.00 in /  0 mm
18:21 54.3 °F /  12.4 °C 51.4 °F /  10.8 °C 29.81 in /  1009.4 hPa East 4.9 mph /  7.9 km/h 10.4 mph /  16.7 km/h 90 % 0.00 in /  0 mm
18:26 54.2 °F /  12.3 °C 51.3 °F /  10.7 °C 29.81 in /  1009.4 hPa ENE 4.8 mph /  7.7 km/h 10.4 mph /  16.7 km/h 90 % 0.00 in /  0 mm
18:31 54.2 °F /  12.3 °C 51.3 °F /  10.7 °C 29.81 in /  1009.4 hPa East 5.9 mph /  9.5 km/h 10.4 mph /  16.7 km/h 90 % 0.00 in /  0 mm
18:41 54.1 °F /  12.3 °C 51.2 °F /  10.7 °C 29.82 in /  1009.7 hPa NE 4.7 mph /  7.6 km/h 8.1 mph /  13 km/h 90 % 0.00 in /  0 mm
18:46 54.1 °F /  12.3 °C 51.2 °F /  10.7 °C 29.82 in /  1009.7 hPa ENE 5.6 mph /  9 km/h 9.2 mph /  14.8 km/h 90 % 0.00 in /  0 mm
18:51 54.0 °F /  12.2 °C 50.8 °F /  10.4 °C 29.82 in /  1009.7 hPa NE 5.7 mph /  9.2 km/h 11.5 mph /  18.5 km/h 89 % 0.00 in /  0 mm
18:56 54.0 °F /  12.2 °C 50.8 °F /  10.4 °C 29.83 in /  1010 hPa ENE 4.8 mph /  7.7 km/h 10.4 mph /  16.7 km/h 89 % 0.00 in /  0 mm
19:01 54.0 °F /  12.2 °C 50.8 °F /  10.4 °C 29.83 in /  1010 hPa ENE 4.7 mph /  7.6 km/h 6.9 mph /  11.1 km/h 89 % 0.00 in /  0 mm
19:06 54.1 °F /  12.3 °C 50.9 °F /  10.5 °C 29.83 in /  1010 hPa ENE 6.7 mph /  10.8 km/h 11.5 mph /  18.5 km/h 89 % 0.00 in /  0 mm
19:11 54.1 °F /  12.3 °C 51.2 °F /  10.7 °C 29.84 in /  1010.4 hPa East 4.6 mph /  7.4 km/h 9.2 mph /  14.8 km/h 90 % 0.00 in /  0 mm
19:16 54.1 °F /  12.3 °C 51.2 °F /  10.7 °C 29.83 in /  1010 hPa NE 3.9 mph /  6.3 km/h 4.6 mph /  7.4 km/h 90 % 0.00 in /  0 mm
19:21 54.0 °F /  12.2 °C 51.1 °F /  10.6 °C 29.83 in /  1010 hPa East 6.2 mph /  10 km/h 9.2 mph /  14.8 km/h 90 % 0.00 in /  0 mm
19:26 54.0 °F /  12.2 °C 50.8 °F /  10.4 °C 29.84 in /  1010.4 hPa ENE 3.8 mph /  6.1 km/h 6.9 mph /  11.1 km/h 89 % 0.00 in /  0 mm
19:31 54.0 °F /  12.2 °C 51.1 °F /  10.6 °C 29.83 in /  1010 hPa NE 4.5 mph /  7.2 km/h 9.2 mph /  14.8 km/h 90 % 0.00 in /  0 mm
19:36 53.9 °F /  12.2 °C 51.0 °F /  10.6 °C 29.84 in /  1010.4 hPa NE 7.0 mph /  11.3 km/h 11.5 mph /  18.5 km/h 90 % 0.00 in /  0 mm
19:41 53.9 °F /  12.2 °C 50.7 °F /  10.4 °C 29.84 in /  1010.4 hPa NE 6.6 mph /  10.6 km/h 11.5 mph /  18.5 km/h 89 % 0.00 in /  0 mm
19:46 53.7 °F /  12.1 °C 50.5 °F /  10.3 °C 29.84 in /  1010.4 hPa ENE 5.4 mph /  8.7 km/h 8.1 mph /  13 km/h 89 % 0.00 in /  0 mm
19:51 53.6 °F /  12 °C 50.4 °F /  10.2 °C 29.85 in /  1010.7 hPa East 6.2 mph /  10 km/h 7.0 mph /  11.3 km/h 89 % 0.00 in /  0 mm
19:56 53.6 °F /  12 °C 50.4 °F /  10.2 °C 29.85 in /  1010.7 hPa ENE 5.6 mph /  9 km/h 7.0 mph /  11.3 km/h 89 % 0.00 in /  0 mm
20:02 53.5 °F /  11.9 °C 50.3 °F /  10.2 °C 29.85 in /  1010.7 hPa NE 5.8 mph /  9.3 km/h 11.5 mph /  18.5 km/h 89 % 0.00 in /  0 mm
20:07 53.4 °F /  11.9 °C 50.2 °F /  10.1 °C 29.85 in /  1010.7 hPa ENE 4.4 mph /  7.1 km/h 4.6 mph /  7.4 km/h 89 % 0.00 in /  0 mm
20:12 53.3 °F /  11.8 °C 50.4 °F /  10.2 °C 29.85 in /  1010.7 hPa ENE 5.5 mph /  8.9 km/h 11.5 mph /  18.5 km/h 90 % 0.00 in /  0 mm
20:17 53.2 °F /  11.8 °C 50.0 °F /  10 °C 29.85 in /  1010.7 hPa ENE 4.9 mph /  7.9 km/h 11.5 mph /  18.5 km/h 89 % 0.00 in /  0 mm
20:22 53.2 °F /  11.8 °C 50.3 °F /  10.2 °C 29.86 in /  1011.1 hPa NE 4.1 mph /  6.6 km/h 6.9 mph /  11.1 km/h 90 % 0.00 in /  0 mm
20:23 53.2 °F /  11.8 °C 50.3 °F /  10.2 °C 29.86 in /  1011.1 hPa ENE 5.2 mph /  8.4 km/h 11.5 mph /  18.5 km/h 90 % 0.00 in /  0 mm
20:28 53.1 °F /  11.7 °C 49.9 °F /  9.9 °C 29.85 in /  1010.7 hPa ENE 4.1 mph /  6.6 km/h 9.0 mph /  14.5 km/h 89 % 0.00 in /  0 mm
20:31 53.1 °F /  11.7 °C 49.6 °F /  9.8 °C 29.85 in /  1010.7 hPa ENE 4.8 mph /  7.7 km/h 9.2 mph /  14.8 km/h 88 % 0.00 in /  0 mm
20:36 53.0 °F /  11.7 °C 49.5 °F /  9.7 °C 29.85 in /  1010.7 hPa ENE 6.2 mph /  10 km/h 10.4 mph /  16.7 km/h 88 % 0.00 in /  0 mm
20:41 53.1 °F /  11.7 °C 49.6 °F /  9.8 °C 29.86 in /  1011.1 hPa ENE 4.1 mph /  6.6 km/h 8.1 mph /  13 km/h 88 % 0.00 in /  0 mm
20:46 53.1 °F /  11.7 °C 49.9 °F /  9.9 °C 29.86 in /  1011.1 hPa NE 5.2 mph /  8.4 km/h 9.2 mph /  14.8 km/h 89 % 0.00 in /  0 mm
20:51 53.1 °F /  11.7 °C 49.6 °F /  9.8 °C 29.86 in /  1011.1 hPa ENE 2.7 mph /  4.3 km/h 5.8 mph /  9.3 km/h 88 % 0.00 in /  0 mm
20:56 53.1 °F /  11.7 °C 49.9 °F /  9.9 °C 29.86 in /  1011.1 hPa ENE 4.2 mph /  6.8 km/h 12.0 mph /  19.3 km/h 89 % 0.00 in /  0 mm
21:01 53.1 °F /  11.7 °C 49.6 °F /  9.8 °C 29.86 in /  1011.1 hPa North 2.2 mph /  3.5 km/h 9.2 mph /  14.8 km/h 88 % 0.00 in /  0 mm
21:06 53.1 °F /  11.7 °C 49.6 °F /  9.8 °C 29.86 in /  1011.1 hPa ENE 3.4 mph /  5.5 km/h 9.2 mph /  14.8 km/h 88 % 0.00 in /  0 mm
21:11 53.0 °F /  11.7 °C 49.5 °F /  9.7 °C 29.86 in /  1011.1 hPa NE 3.2 mph /  5.1 km/h 9.2 mph /  14.8 km/h 88 % 0.00 in /  0 mm
21:16 53.0 °F /  11.7 °C 49.5 °F /  9.7 °C 29.86 in /  1011.1 hPa ENE 4.9 mph /  7.9 km/h 8.1 mph /  13 km/h 88 % 0.00 in /  0 mm
21:21 53.0 °F /  11.7 °C 49.2 °F /  9.6 °C 29.86 in /  1011.1 hPa ENE 4.8 mph /  7.7 km/h 8.1 mph /  13 km/h 87 % 0.00 in /  0 mm
21:26 53.0 °F /  11.7 °C 49.2 °F /  9.6 °C 29.87 in /  1011.4 hPa ENE 6.6 mph /  10.6 km/h 13.8 mph /  22.2 km/h 87 % 0.00 in /  0 mm
21:31 52.9 °F /  11.6 °C 48.8 °F /  9.3 °C 29.87 in /  1011.4 hPa ENE 5.8 mph /  9.3 km/h 10.4 mph /  16.7 km/h 86 % 0.00 in /  0 mm
21:36 53.0 °F /  11.7 °C 48.6 °F /  9.2 °C 29.87 in /  1011.4 hPa ENE 7.4 mph /  11.9 km/h 10.4 mph /  16.7 km/h 85 % 0.00 in /  0 mm
21:41 53.0 °F /  11.7 °C 48.6 °F /  9.2 °C 29.87 in /  1011.4 hPa ENE 8.4 mph /  13.5 km/h 13.8 mph /  22.2 km/h 85 % 0.00 in /  0 mm
21:46 53.0 °F /  11.7 °C 48.3 °F /  9.1 °C 29.87 in /  1011.4 hPa ENE 5.8 mph /  9.3 km/h 10.4 mph /  16.7 km/h 84 % 0.00 in /  0 mm
21:51 53.1 °F /  11.7 °C 48.7 °F /  9.3 °C 29.88 in /  1011.7 hPa East 5.4 mph /  8.7 km/h 9.2 mph /  14.8 km/h 85 % 0.00 in /  0 mm
21:56 53.1 °F /  11.7 °C 48.7 °F /  9.3 °C 29.88 in /  1011.7 hPa ENE 6.0 mph /  9.7 km/h 8.1 mph /  13 km/h 85 % 0.00 in /  0 mm
22:01 53.1 °F /  11.7 °C 48.7 °F /  9.3 °C 29.88 in /  1011.7 hPa ENE 6.2 mph /  10 km/h 10.4 mph /  16.7 km/h 85 % 0.00 in /  0 mm
22:06 53.1 °F /  11.7 °C 48.7 °F /  9.3 °C 29.88 in /  1011.7 hPa ENE 7.4 mph /  11.9 km/h 11.5 mph /  18.5 km/h 85 % 0.00 in /  0 mm
22:16 53.2 °F /  11.8 °C 49.1 °F /  9.5 °C 29.88 in /  1011.7 hPa ENE 3.1 mph /  5 km/h 9.2 mph /  14.8 km/h 86 % 0.00 in /  0 mm
22:21 53.2 °F /  11.8 °C 49.4 °F /  9.7 °C 29.89 in /  1012.1 hPa NE 3.2 mph /  5.1 km/h 4.6 mph /  7.4 km/h 87 % 0.00 in /  0 mm
22:26 53.2 °F /  11.8 °C 49.4 °F /  9.7 °C 29.89 in /  1012.1 hPa ENE 3.5 mph /  5.6 km/h 6.9 mph /  11.1 km/h 87 % 0.00 in /  0 mm
22:31 53.1 °F /  11.7 °C 49.3 °F /  9.6 °C 29.88 in /  1011.7 hPa NE 4.7 mph /  7.6 km/h 7.0 mph /  11.3 km/h 87 % 0.00 in /  0 mm
22:37 53.1 °F /  11.7 °C 49.3 °F /  9.6 °C 29.88 in /  1011.7 hPa NNE 3.5 mph /  5.6 km/h 6.0 mph /  9.7 km/h 87 % 0.00 in /  0 mm
22:42 53.0 °F /  11.7 °C 49.2 °F /  9.6 °C 29.88 in /  1011.7 hPa NE 3.9 mph /  6.3 km/h 4.6 mph /  7.4 km/h 87 % 0.00 in /  0 mm
22:47 52.9 °F /  11.6 °C 49.1 °F /  9.5 °C 29.88 in /  1011.7 hPa ENE 3.5 mph /  5.6 km/h 9.0 mph /  14.5 km/h 87 % 0.00 in /  0 mm
22:52 52.8 °F /  11.6 °C 49.0 °F /  9.4 °C 29.88 in /  1011.7 hPa ENE 3.0 mph /  4.8 km/h 8.1 mph /  13 km/h 87 % 0.00 in /  0 mm
22:57 52.7 °F /  11.5 °C 48.9 °F /  9.4 °C 29.88 in /  1011.7 hPa NNE 2.7 mph /  4.3 km/h 4.0 mph /  6.4 km/h 87 % 0.00 in /  0 mm
23:02 52.7 °F /  11.5 °C 48.9 °F /  9.4 °C 29.88 in /  1011.7 hPa NNE 3.1 mph /  5 km/h 6.9 mph /  11.1 km/h 87 % 0.00 in /  0 mm
23:07 52.6 °F /  11.4 °C 48.8 °F /  9.3 °C 29.88 in /  1011.7 hPa NNE 2.9 mph /  4.7 km/h 5.8 mph /  9.3 km/h 87 % 0.00 in /  0 mm
23:12 52.6 °F /  11.4 °C 49.1 °F /  9.5 °C 29.88 in /  1011.7 hPa ENE 3.6 mph /  5.8 km/h 9.2 mph /  14.8 km/h 88 % 0.00 in /  0 mm
23:17 52.5 °F /  11.4 °C 49.0 °F /  9.4 °C 29.88 in /  1011.7 hPa East 4.6 mph /  7.4 km/h 9.2 mph /  14.8 km/h 88 % 0.00 in /  0 mm
23:22 52.5 °F /  11.4 °C 49.0 °F /  9.4 °C 29.89 in /  1012.1 hPa NNE 3.1 mph /  5 km/h 7.0 mph /  11.3 km/h 88 % 0.00 in /  0 mm
23:27 52.5 °F /  11.4 °C 49.0 °F /  9.4 °C 29.89 in /  1012.1 hPa ENE 3.9 mph /  6.3 km/h 9.2 mph /  14.8 km/h 88 % 0.00 in /  0 mm
23:32 52.4 °F /  11.3 °C 48.9 °F /  9.4 °C 29.89 in /  1012.1 hPa ENE 3.1 mph /  5 km/h 5.8 mph /  9.3 km/h 88 % 0.00 in /  0 mm
23:37 52.4 °F /  11.3 °C 48.9 °F /  9.4 °C 29.89 in /  1012.1 hPa NNE 3.8 mph /  6.1 km/h 8.1 mph /  13 km/h 88 % 0.00 in /  0 mm
23:42 52.4 °F /  11.3 °C 48.9 °F /  9.4 °C 29.89 in /  1012.1 hPa ENE 2.9 mph /  4.7 km/h 8.1 mph /  13 km/h 88 % 0.00 in /  0 mm
23:47 52.4 °F /  11.3 °C 49.3 °F /  9.6 °C 29.89 in /  1012.1 hPa ENE 2.5 mph /  4 km/h 5.8 mph /  9.3 km/h 89 % 0.00 in /  0 mm
23:52 52.4 °F /  11.3 °C 49.3 °F /  9.6 °C 29.89 in /  1012.1 hPa NE 1.7 mph /  2.7 km/h 8.1 mph /  13 km/h 89 % 0.00 in /  0 mm
23:57 52.4 °F /  11.3 °C 49.3 °F /  9.6 °C 29.89 in /  1012.1 hPa ENE 2.4 mph /  3.9 km/h 5.8 mph /  9.3 km/h 89 % 0.00 in /  0 mm
Crab Meadow Weather
Compliments of Weather Underground - 3 mb

Script developed by  Jim McMurry - jmcmurry@mwt.net Adapted for the template by  Wim van der Kuil - Leuven-Template.eu

Rain: The total amount of precipitation the earth receives each year as snow, hail, and rain is equivalent to 10 million gallons of water for every person in the United States.